sensor_id;sensor_type;location;lat;lon;timestamp;P1;durP1;ratioP1;P2;durP2;ratioP2
35380;SDS011;21486;51.916;8.378;2023-05-03T00:33:01;13.45;;;4.70;;
35380;SDS011;21486;51.916;8.378;2023-05-03T00:35:27;11.30;;;4.23;;
35380;SDS011;21486;51.916;8.378;2023-05-03T00:37:52;8.30;;;4.10;;
35380;SDS011;21486;51.916;8.378;2023-05-03T00:40:18;7.30;;;3.90;;
35380;SDS011;21486;51.916;8.378;2023-05-03T00:42:43;8.70;;;4.15;;
35380;SDS011;21486;51.916;8.378;2023-05-03T00:45:10;10.23;;;4.53;;
35380;SDS011;21486;51.916;8.378;2023-05-03T00:47:36;9.07;;;4.50;;
35380;SDS011;21486;51.916;8.378;2023-05-03T00:50:03;8.32;;;4.00;;
35380;SDS011;21486;51.916;8.378;2023-05-03T00:52:29;9.75;;;4.20;;
35380;SDS011;21486;51.916;8.378;2023-05-03T00:54:58;7.15;;;4.10;;
35380;SDS011;21486;51.916;8.378;2023-05-03T00:57:24;8.53;;;3.93;;
35380;SDS011;21486;51.916;8.378;2023-05-03T00:59:51;7.00;;;3.97;;
35380;SDS011;21486;51.916;8.378;2023-05-03T01:02:17;8.90;;;4.32;;
35380;SDS011;21486;51.916;8.378;2023-05-03T01:04:43;8.07;;;4.47;;
35380;SDS011;21486;51.916;8.378;2023-05-03T01:15:44;9.68;;;3.88;;
35380;SDS011;21486;51.916;8.378;2023-05-03T01:18:17;13.27;;;4.05;;
35380;SDS011;21486;51.916;8.378;2023-05-03T01:20:48;10.32;;;4.70;;
35380;SDS011;21486;51.916;8.378;2023-05-03T01:28:46;8.63;;;4.50;;
35380;SDS011;21486;51.916;8.378;2023-05-03T01:31:13;9.48;;;4.40;;
35380;SDS011;21486;51.916;8.378;2023-05-03T01:33:54;11.30;;;4.55;;
35380;SDS011;21486;51.916;8.378;2023-05-03T01:36:29;10.37;;;4.67;;
35380;SDS011;21486;51.916;8.378;2023-05-03T01:39:08;9.20;;;4.43;;
35380;SDS011;21486;51.916;8.378;2023-05-03T01:41:39;10.15;;;4.30;;
35380;SDS011;21486;51.916;8.378;2023-05-03T01:44:07;7.65;;;4.25;;
35380;SDS011;21486;51.916;8.378;2023-05-03T01:46:40;11.10;;;4.73;;
35380;SDS011;21486;51.916;8.378;2023-05-03T01:49:09;9.90;;;4.18;;
35380;SDS011;21486;51.916;8.378;2023-05-03T01:51:35;8.68;;;4.50;;
35380;SDS011;21486;51.916;8.378;2023-05-03T01:54:00;7.88;;;4.32;;
35380;SDS011;21486;51.916;8.378;2023-05-03T01:56:26;7.72;;;4.35;;
35380;SDS011;21486;51.916;8.378;2023-05-03T01:58:52;8.50;;;4.47;;
35380;SDS011;21486;51.916;8.378;2023-05-03T02:01:17;6.90;;;4.47;;
35380;SDS011;21486;51.916;8.378;2023-05-03T02:03:43;10.38;;;4.53;;
35380;SDS011;21486;51.916;8.378;2023-05-03T02:06:08;9.20;;;4.83;;
35380;SDS011;21486;51.916;8.378;2023-05-03T02:08:34;9.67;;;5.10;;
35380;SDS011;21486;51.916;8.378;2023-05-03T02:10:59;8.33;;;4.30;;
35380;SDS011;21486;51.916;8.378;2023-05-03T02:13:25;16.93;;;4.50;;
35380;SDS011;21486;51.916;8.378;2023-05-03T02:15:50;11.43;;;4.67;;
35380;SDS011;21486;51.916;8.378;2023-05-03T02:18:16;10.73;;;4.20;;
35380;SDS011;21486;51.916;8.378;2023-05-03T02:20:45;9.60;;;4.75;;
35380;SDS011;21486;51.916;8.378;2023-05-03T02:23:11;8.90;;;4.60;;
35380;SDS011;21486;51.916;8.378;2023-05-03T02:25:37;13.05;;;4.82;;
35380;SDS011;21486;51.916;8.378;2023-05-03T02:28:03;9.00;;;4.70;;
35380;SDS011;21486;51.916;8.378;2023-05-03T02:30:29;9.47;;;4.50;;
35380;SDS011;21486;51.916;8.378;2023-05-03T02:32:55;9.25;;;4.82;;
35380;SDS011;21486;51.916;8.378;2023-05-03T02:35:20;11.33;;;4.60;;
35380;SDS011;21486;51.916;8.378;2023-05-03T02:37:46;9.47;;;4.50;;
35380;SDS011;21486;51.916;8.378;2023-05-03T02:40:12;9.18;;;4.60;;
35380;SDS011;21486;51.916;8.378;2023-05-03T02:42:38;9.07;;;4.75;;
35380;SDS011;21486;51.916;8.378;2023-05-03T02:45:04;10.02;;;4.70;;
35380;SDS011;21486;51.916;8.378;2023-05-03T02:47:30;8.77;;;4.43;;
35380;SDS011;21486;51.916;8.378;2023-05-03T02:49:56;12.10;;;5.07;;
35380;SDS011;21486;51.916;8.378;2023-05-03T02:52:22;9.10;;;4.57;;
35380;SDS011;21486;51.916;8.378;2023-05-03T02:54:47;12.13;;;5.40;;
35380;SDS011;21486;51.916;8.378;2023-05-03T02:57:13;7.97;;;4.70;;
35380;SDS011;21486;51.916;8.378;2023-05-03T02:59:39;8.60;;;4.82;;
35380;SDS011;21486;51.916;8.378;2023-05-03T03:02:05;10.00;;;4.82;;
35380;SDS011;21486;51.916;8.378;2023-05-03T03:04:30;9.10;;;5.05;;
35380;SDS011;21486;51.916;8.378;2023-05-03T03:06:56;12.15;;;5.00;;
35380;SDS011;21486;51.916;8.378;2023-05-03T03:09:22;7.60;;;5.13;;
35380;SDS011;21486;51.916;8.378;2023-05-03T03:11:49;10.23;;;5.03;;
35380;SDS011;21486;51.916;8.378;2023-05-03T03:14:15;10.48;;;4.82;;
35380;SDS011;21486;51.916;8.378;2023-05-03T03:16:41;13.00;;;5.13;;
35380;SDS011;21486;51.916;8.378;2023-05-03T03:19:06;8.98;;;5.13;;
35380;SDS011;21486;51.916;8.378;2023-05-03T03:21:32;9.25;;;4.55;;
35380;SDS011;21486;51.916;8.378;2023-05-03T03:23:59;10.23;;;5.00;;
35380;SDS011;21486;51.916;8.378;2023-05-03T03:26:25;7.73;;;4.70;;
35380;SDS011;21486;51.916;8.378;2023-05-03T03:28:51;10.30;;;5.10;;
35380;SDS011;21486;51.916;8.378;2023-05-03T03:31:16;15.33;;;5.30;;
35380;SDS011;21486;51.916;8.378;2023-05-03T03:33:42;10.70;;;5.10;;
35380;SDS011;21486;51.916;8.378;2023-05-03T03:36:07;13.83;;;5.27;;
35380;SDS011;21486;51.916;8.378;2023-05-03T03:38:34;8.85;;;4.97;;
35380;SDS011;21486;51.916;8.378;2023-05-03T03:40:59;9.52;;;5.57;;
35380;SDS011;21486;51.916;8.378;2023-05-03T03:43:25;12.48;;;5.50;;
35380;SDS011;21486;51.916;8.378;2023-05-03T03:45:51;10.55;;;5.18;;
35380;SDS011;21486;51.916;8.378;2023-05-03T03:48:16;9.00;;;5.25;;
35380;SDS011;21486;51.916;8.378;2023-05-03T03:50:42;11.98;;;5.75;;
35380;SDS011;21486;51.916;8.378;2023-05-03T03:53:08;9.13;;;5.13;;
35380;SDS011;21486;51.916;8.378;2023-05-03T03:55:35;11.70;;;5.55;;
35380;SDS011;21486;51.916;8.378;2023-05-03T03:58:00;16.70;;;5.55;;
35380;SDS011;21486;51.916;8.378;2023-05-03T04:00:26;11.00;;;5.78;;
35380;SDS011;21486;51.916;8.378;2023-05-03T04:02:52;12.27;;;6.00;;
35380;SDS011;21486;51.916;8.378;2023-05-03T04:05:17;16.80;;;5.93;;
35380;SDS011;21486;51.916;8.378;2023-05-03T04:07:43;16.35;;;5.80;;
35380;SDS011;21486;51.916;8.378;2023-05-03T04:10:08;10.85;;;5.28;;
35380;SDS011;21486;51.916;8.378;2023-05-03T04:12:34;13.77;;;5.88;;
35380;SDS011;21486;51.916;8.378;2023-05-03T04:14:59;12.38;;;6.00;;
35380;SDS011;21486;51.916;8.378;2023-05-03T04:17:25;12.05;;;5.95;;
35380;SDS011;21486;51.916;8.378;2023-05-03T04:19:51;12.00;;;5.65;;
35380;SDS011;21486;51.916;8.378;2023-05-03T04:22:16;9.50;;;5.40;;
35380;SDS011;21486;51.916;8.378;2023-05-03T04:24:42;12.02;;;5.43;;
35380;SDS011;21486;51.916;8.378;2023-05-03T04:27:08;13.07;;;5.78;;
35380;SDS011;21486;51.916;8.378;2023-05-03T04:29:33;12.00;;;5.53;;
35380;SDS011;21486;51.916;8.378;2023-05-03T04:31:59;12.27;;;5.75;;
35380;SDS011;21486;51.916;8.378;2023-05-03T04:34:26;11.75;;;5.95;;
35380;SDS011;21486;51.916;8.378;2023-05-03T04:36:54;14.77;;;6.30;;
35380;SDS011;21486;51.916;8.378;2023-05-03T04:39:19;11.57;;;5.90;;
35380;SDS011;21486;51.916;8.378;2023-05-03T04:41:46;12.60;;;6.35;;
35380;SDS011;21486;51.916;8.378;2023-05-03T04:44:11;13.20;;;5.73;;
35380;SDS011;21486;51.916;8.378;2023-05-03T04:46:38;11.68;;;5.53;;
35380;SDS011;21486;51.916;8.378;2023-05-03T04:49:04;9.98;;;5.28;;
35380;SDS011;21486;51.916;8.378;2023-05-03T04:51:30;10.98;;;5.15;;
35380;SDS011;21486;51.916;8.378;2023-05-03T04:53:57;9.45;;;5.53;;
35380;SDS011;21486;51.916;8.378;2023-05-03T04:56:22;10.02;;;5.07;;
35380;SDS011;21486;51.916;8.378;2023-05-03T04:58:51;11.30;;;5.55;;
35380;SDS011;21486;51.916;8.378;2023-05-03T05:01:17;13.15;;;5.40;;
35380;SDS011;21486;51.916;8.378;2023-05-03T05:03:43;10.57;;;5.57;;
35380;SDS011;21486;51.916;8.378;2023-05-03T05:06:09;10.57;;;5.20;;
35380;SDS011;21486;51.916;8.378;2023-05-03T05:08:36;11.88;;;5.60;;
35380;SDS011;21486;51.916;8.378;2023-05-03T05:11:02;14.30;;;5.70;;
35380;SDS011;21486;51.916;8.378;2023-05-03T05:13:29;13.45;;;5.82;;
35380;SDS011;21486;51.916;8.378;2023-05-03T05:15:55;13.90;;;6.13;;
35380;SDS011;21486;51.916;8.378;2023-05-03T05:18:20;17.57;;;6.60;;
35380;SDS011;21486;51.916;8.378;2023-05-03T05:20:46;19.00;;;9.55;;
35380;SDS011;21486;51.916;8.378;2023-05-03T05:23:12;23.77;;;10.63;;
35380;SDS011;21486;51.916;8.378;2023-05-03T05:25:37;11.02;;;6.45;;
35380;SDS011;21486;51.916;8.378;2023-05-03T05:28:03;12.65;;;6.10;;
35380;SDS011;21486;51.916;8.378;2023-05-03T05:30:29;12.90;;;5.95;;
35380;SDS011;21486;51.916;8.378;2023-05-03T05:32:55;8.77;;;5.60;;
35380;SDS011;21486;51.916;8.378;2023-05-03T05:35:21;14.37;;;6.40;;
35380;SDS011;21486;51.916;8.378;2023-05-03T05:37:46;11.97;;;6.30;;
35380;SDS011;21486;51.916;8.378;2023-05-03T05:40:12;20.83;;;6.43;;
35380;SDS011;21486;51.916;8.378;2023-05-03T05:42:38;17.50;;;7.03;;
35380;SDS011;21486;51.916;8.378;2023-05-03T05:45:03;15.83;;;6.50;;
35380;SDS011;21486;51.916;8.378;2023-05-03T05:47:31;14.27;;;5.93;;
35380;SDS011;21486;51.916;8.378;2023-05-03T05:49:57;12.73;;;5.87;;
35380;SDS011;21486;51.916;8.378;2023-05-03T05:52:22;17.93;;;6.50;;
35380;SDS011;21486;51.916;8.378;2023-05-03T05:54:48;11.57;;;5.87;;
35380;SDS011;21486;51.916;8.378;2023-05-03T05:57:13;14.13;;;6.00;;
35380;SDS011;21486;51.916;8.378;2023-05-03T05:59:39;15.43;;;5.93;;
35380;SDS011;21486;51.916;8.378;2023-05-03T06:02:06;12.57;;;6.03;;
35380;SDS011;21486;51.916;8.378;2023-05-03T06:04:47;17.65;;;6.07;;
35380;SDS011;21486;51.916;8.378;2023-05-03T06:07:13;11.38;;;5.70;;
35380;SDS011;21486;51.916;8.378;2023-05-03T06:09:39;14.43;;;6.03;;
35380;SDS011;21486;51.916;8.378;2023-05-03T06:12:05;12.60;;;5.53;;
35380;SDS011;21486;51.916;8.378;2023-05-03T06:14:31;13.25;;;4.78;;
35380;SDS011;21486;51.916;8.378;2023-05-03T06:16:56;13.25;;;4.05;;
35380;SDS011;21486;51.916;8.378;2023-05-03T06:19:23;16.02;;;4.45;;
35380;SDS011;21486;51.916;8.378;2023-05-03T06:21:49;10.23;;;3.87;;
35380;SDS011;21486;51.916;8.378;2023-05-03T06:24:15;10.32;;;3.92;;
35380;SDS011;21486;51.916;8.378;2023-05-03T06:26:44;10.50;;;4.50;;
35380;SDS011;21486;51.916;8.378;2023-05-03T06:29:11;10.90;;;4.60;;
35380;SDS011;21486;51.916;8.378;2023-05-03T06:31:36;10.07;;;4.35;;
35380;SDS011;21486;51.916;8.378;2023-05-03T06:34:02;14.30;;;3.95;;
35380;SDS011;21486;51.916;8.378;2023-05-03T06:36:27;12.63;;;3.97;;
35380;SDS011;21486;51.916;8.378;2023-05-03T06:38:55;8.88;;;4.22;;
35380;SDS011;21486;51.916;8.378;2023-05-03T06:41:20;13.45;;;4.63;;
35380;SDS011;21486;51.916;8.378;2023-05-03T06:43:46;10.40;;;4.10;;
35380;SDS011;21486;51.916;8.378;2023-05-03T06:46:12;11.93;;;4.00;;
35380;SDS011;21486;51.916;8.378;2023-05-03T06:48:37;15.55;;;4.57;;
35380;SDS011;21486;51.916;8.378;2023-05-03T06:51:03;13.13;;;4.40;;
35380;SDS011;21486;51.916;8.378;2023-05-03T06:53:29;12.02;;;4.07;;
35380;SDS011;21486;51.916;8.378;2023-05-03T06:55:54;13.27;;;4.40;;
35380;SDS011;21486;51.916;8.378;2023-05-03T06:58:21;10.60;;;4.38;;
35380;SDS011;21486;51.916;8.378;2023-05-03T07:00:50;11.47;;;3.90;;
35380;SDS011;21486;51.916;8.378;2023-05-03T07:03:16;12.05;;;4.10;;
35380;SDS011;21486;51.916;8.378;2023-05-03T07:05:42;11.30;;;3.60;;
35380;SDS011;21486;51.916;8.378;2023-05-03T07:08:08;14.48;;;4.00;;
35380;SDS011;21486;51.916;8.378;2023-05-03T07:10:33;7.72;;;3.60;;
35380;SDS011;21486;51.916;8.378;2023-05-03T07:12:59;9.98;;;3.60;;
35380;SDS011;21486;51.916;8.378;2023-05-03T07:15:24;9.00;;;3.60;;
35380;SDS011;21486;51.916;8.378;2023-05-03T07:17:50;9.67;;;2.93;;
35380;SDS011;21486;51.916;8.378;2023-05-03T07:20:15;6.28;;;1.73;;
35380;SDS011;21486;51.916;8.378;2023-05-03T07:22:41;6.97;;;2.10;;
35380;SDS011;21486;51.916;8.378;2023-05-03T07:25:07;8.57;;;2.10;;
35380;SDS011;21486;51.916;8.378;2023-05-03T07:27:32;7.30;;;1.85;;
35380;SDS011;21486;51.916;8.378;2023-05-03T07:29:58;5.27;;;1.70;;
35380;SDS011;21486;51.916;8.378;2023-05-03T07:32:24;8.93;;;1.90;;
35380;SDS011;21486;51.916;8.378;2023-05-03T07:34:50;8.77;;;1.77;;
35380;SDS011;21486;51.916;8.378;2023-05-03T07:37:15;7.27;;;1.60;;
35380;SDS011;21486;51.916;8.378;2023-05-03T07:39:41;8.77;;;1.80;;
35380;SDS011;21486;51.916;8.378;2023-05-03T07:42:07;10.57;;;1.90;;
35380;SDS011;21486;51.916;8.378;2023-05-03T07:44:32;5.80;;;1.70;;
35380;SDS011;21486;51.916;8.378;2023-05-03T07:46:58;6.33;;;1.53;;
35380;SDS011;21486;51.916;8.378;2023-05-03T07:49:23;7.30;;;1.57;;
35380;SDS011;21486;51.916;8.378;2023-05-03T07:51:49;6.75;;;1.67;;
35380;SDS011;21486;51.916;8.378;2023-05-03T07:54:15;6.68;;;1.52;;
35380;SDS011;21486;51.916;8.378;2023-05-03T07:56:40;6.67;;;1.80;;
35380;SDS011;21486;51.916;8.378;2023-05-03T07:59:06;9.10;;;2.03;;
35380;SDS011;21486;51.916;8.378;2023-05-03T08:01:31;5.37;;;1.63;;
35380;SDS011;21486;51.916;8.378;2023-05-03T08:03:57;5.90;;;1.80;;
35380;SDS011;21486;51.916;8.378;2023-05-03T08:06:22;6.68;;;1.75;;
35380;SDS011;21486;51.916;8.378;2023-05-03T08:08:49;4.80;;;1.50;;
35380;SDS011;21486;51.916;8.378;2023-05-03T08:11:14;6.10;;;1.87;;
35380;SDS011;21486;51.916;8.378;2023-05-03T08:13:40;6.10;;;1.73;;
35380;SDS011;21486;51.916;8.378;2023-05-03T08:16:05;5.80;;;1.80;;
35380;SDS011;21486;51.916;8.378;2023-05-03T08:18:31;11.13;;;2.60;;
35380;SDS011;21486;51.916;8.378;2023-05-03T08:20:56;4.53;;;1.60;;
35380;SDS011;21486;51.916;8.378;2023-05-03T08:23:22;5.60;;;1.77;;
35380;SDS011;21486;51.916;8.378;2023-05-03T08:25:48;6.88;;;1.65;;
35380;SDS011;21486;51.916;8.378;2023-05-03T08:28:24;7.07;;;1.80;;
35380;SDS011;21486;51.916;8.378;2023-05-03T08:30:50;5.93;;;1.50;;
35380;SDS011;21486;51.916;8.378;2023-05-03T08:33:16;4.78;;;1.90;;
35380;SDS011;21486;51.916;8.378;2023-05-03T08:35:41;5.67;;;1.80;;
35380;SDS011;21486;51.916;8.378;2023-05-03T08:38:07;6.10;;;1.63;;
35380;SDS011;21486;51.916;8.378;2023-05-03T08:40:33;4.45;;;1.83;;
35380;SDS011;21486;51.916;8.378;2023-05-03T08:43:05;5.60;;;2.00;;
35380;SDS011;21486;51.916;8.378;2023-05-03T08:45:33;8.50;;;1.83;;
35380;SDS011;21486;51.916;8.378;2023-05-03T08:48:00;7.07;;;2.00;;
35380;SDS011;21486;51.916;8.378;2023-05-03T08:50:28;7.80;;;1.85;;
35380;SDS011;21486;51.916;8.378;2023-05-03T08:52:55;4.88;;;1.70;;
35380;SDS011;21486;51.916;8.378;2023-05-03T08:55:21;6.57;;;2.05;;
35380;SDS011;21486;51.916;8.378;2023-05-03T08:57:47;7.47;;;1.88;;
35380;SDS011;21486;51.916;8.378;2023-05-03T09:00:12;7.17;;;1.90;;
35380;SDS011;21486;51.916;8.378;2023-05-03T09:02:39;4.27;;;1.53;;
35380;SDS011;21486;51.916;8.378;2023-05-03T09:07:59;5.68;;;1.63;;
35380;SDS011;21486;51.916;8.378;2023-05-03T09:10:27;6.55;;;1.95;;
35380;SDS011;21486;51.916;8.378;2023-05-03T09:12:57;5.82;;;1.75;;
35380;SDS011;21486;51.916;8.378;2023-05-03T09:15:25;5.60;;;1.83;;
35380;SDS011;21486;51.916;8.378;2023-05-03T09:20:36;5.70;;;1.50;;
35380;SDS011;21486;51.916;8.378;2023-05-03T09:23:03;5.43;;;1.63;;
35380;SDS011;21486;51.916;8.378;2023-05-03T09:25:40;7.83;;;2.30;;
35380;SDS011;21486;51.916;8.378;2023-05-03T09:28:06;6.40;;;1.75;;
35380;SDS011;21486;51.916;8.378;2023-05-03T09:30:33;5.07;;;1.50;;
35380;SDS011;21486;51.916;8.378;2023-05-03T09:32:59;6.45;;;1.83;;
35380;SDS011;21486;51.916;8.378;2023-05-03T09:35:24;5.32;;;1.42;;
35380;SDS011;21486;51.916;8.378;2023-05-03T09:37:50;5.27;;;1.83;;
35380;SDS011;21486;51.916;8.378;2023-05-03T09:40:16;4.73;;;1.70;;
35380;SDS011;21486;51.916;8.378;2023-05-03T09:43:04;6.03;;;1.70;;
35380;SDS011;21486;51.916;8.378;2023-05-03T09:45:29;7.05;;;1.77;;
35380;SDS011;21486;51.916;8.378;2023-05-03T09:47:55;6.40;;;1.88;;
35380;SDS011;21486;51.916;8.378;2023-05-03T09:50:37;5.80;;;1.75;;
35380;SDS011;21486;51.916;8.378;2023-05-03T09:53:05;4.53;;;1.80;;
35380;SDS011;21486;51.916;8.378;2023-05-03T09:55:35;7.47;;;1.88;;
35380;SDS011;21486;51.916;8.378;2023-05-03T09:58:02;6.70;;;1.77;;
35380;SDS011;21486;51.916;8.378;2023-05-03T10:00:40;7.50;;;2.90;;
35380;SDS011;21486;51.916;8.378;2023-05-03T10:03:10;7.25;;;2.22;;
35380;SDS011;21486;51.916;8.378;2023-05-03T10:05:54;6.47;;;2.00;;
35380;SDS011;21486;51.916;8.378;2023-05-03T10:08:25;7.22;;;2.00;;
35380;SDS011;21486;51.916;8.378;2023-05-03T10:10:55;5.60;;;1.85;;
35380;SDS011;21486;51.916;8.378;2023-05-03T10:13:21;6.93;;;2.20;;
35380;SDS011;21486;51.916;8.378;2023-05-03T10:15:52;5.90;;;1.90;;
35380;SDS011;21486;51.916;8.378;2023-05-03T10:22:18;6.50;;;1.70;;
35380;SDS011;21486;51.916;8.378;2023-05-03T10:27:21;6.93;;;2.28;;
35380;SDS011;21486;51.916;8.378;2023-05-03T10:29:47;6.75;;;2.38;;
35380;SDS011;21486;51.916;8.378;2023-05-03T10:32:28;5.65;;;2.40;;
35380;SDS011;21486;51.916;8.378;2023-05-03T10:35:02;7.10;;;2.30;;
35380;SDS011;21486;51.916;8.378;2023-05-03T10:37:39;8.18;;;2.50;;
35380;SDS011;21486;51.916;8.378;2023-05-03T10:40:12;6.38;;;2.40;;
35380;SDS011;21486;51.916;8.378;2023-05-03T10:42:45;6.53;;;2.25;;
35380;SDS011;21486;51.916;8.378;2023-05-03T10:45:23;6.50;;;2.50;;
35380;SDS011;21486;51.916;8.378;2023-05-03T10:50:35;9.80;;;2.35;;
35380;SDS011;21486;51.916;8.378;2023-05-03T10:53:00;8.18;;;1.98;;
35380;SDS011;21486;51.916;8.378;2023-05-03T10:55:26;6.88;;;2.15;;
35380;SDS011;21486;51.916;8.378;2023-05-03T10:57:56;6.43;;;2.15;;
35380;SDS011;21486;51.916;8.378;2023-05-03T11:05:47;7.13;;;2.40;;
35380;SDS011;21486;51.916;8.378;2023-05-03T11:08:17;6.47;;;2.27;;
35380;SDS011;21486;51.916;8.378;2023-05-03T11:10:44;7.07;;;2.70;;
35380;SDS011;21486;51.916;8.378;2023-05-03T11:13:11;5.35;;;2.30;;
35380;SDS011;21486;51.916;8.378;2023-05-03T11:15:37;6.65;;;2.47;;
35380;SDS011;21486;51.916;8.378;2023-05-03T11:18:03;6.47;;;2.33;;
35380;SDS011;21486;51.916;8.378;2023-05-03T11:20:34;8.38;;;2.50;;
35380;SDS011;21486;51.916;8.378;2023-05-03T11:23:01;9.88;;;2.20;;
35380;SDS011;21486;51.916;8.378;2023-05-03T11:25:28;8.32;;;2.40;;
35380;SDS011;21486;51.916;8.378;2023-05-03T11:27:58;7.28;;;2.60;;
35380;SDS011;21486;51.916;8.378;2023-05-03T11:30:25;7.75;;;2.83;;
35380;SDS011;21486;51.916;8.378;2023-05-03T11:32:52;5.80;;;2.50;;
35380;SDS011;21486;51.916;8.378;2023-05-03T11:35:17;8.13;;;2.50;;
35380;SDS011;21486;51.916;8.378;2023-05-03T11:37:49;6.22;;;2.45;;
35380;SDS011;21486;51.916;8.378;2023-05-03T11:40:15;8.10;;;2.60;;
35380;SDS011;21486;51.916;8.378;2023-05-03T11:42:54;8.60;;;2.30;;
35380;SDS011;21486;51.916;8.378;2023-05-03T11:45:38;7.85;;;2.65;;
35380;SDS011;21486;51.916;8.378;2023-05-03T11:48:08;8.13;;;2.28;;
35380;SDS011;21486;51.916;8.378;2023-05-03T11:51:09;8.50;;;2.50;;
35380;SDS011;21486;51.916;8.378;2023-05-03T11:53:35;5.95;;;2.60;;
35380;SDS011;21486;51.916;8.378;2023-05-03T11:56:05;5.63;;;2.35;;
35380;SDS011;21486;51.916;8.378;2023-05-03T11:58:48;6.20;;;1.90;;
35380;SDS011;21486;51.916;8.378;2023-05-03T12:01:16;9.25;;;2.70;;
35380;SDS011;21486;51.916;8.378;2023-05-03T12:03:42;6.83;;;2.50;;
35380;SDS011;21486;51.916;8.378;2023-05-03T12:06:08;6.70;;;2.40;;
35380;SDS011;21486;51.916;8.378;2023-05-03T12:08:35;5.32;;;2.70;;
35380;SDS011;21486;51.916;8.378;2023-05-03T12:11:01;5.35;;;2.60;;
35380;SDS011;21486;51.916;8.378;2023-05-03T12:13:30;5.85;;;2.28;;
35380;SDS011;21486;51.916;8.378;2023-05-03T12:15:57;8.40;;;2.40;;
35380;SDS011;21486;51.916;8.378;2023-05-03T12:18:24;10.87;;;2.40;;
35380;SDS011;21486;51.916;8.378;2023-05-03T12:20:54;6.63;;;2.40;;
35380;SDS011;21486;51.916;8.378;2023-05-03T12:23:22;7.97;;;2.60;;
35380;SDS011;21486;51.916;8.378;2023-05-03T12:25:48;5.78;;;2.50;;
35380;SDS011;21486;51.916;8.378;2023-05-03T12:28:15;7.63;;;2.55;;
35380;SDS011;21486;51.916;8.378;2023-05-03T12:30:41;7.22;;;2.20;;
35380;SDS011;21486;51.916;8.378;2023-05-03T12:33:07;6.97;;;2.50;;
35380;SDS011;21486;51.916;8.378;2023-05-03T12:35:33;7.47;;;2.40;;
35380;SDS011;21486;51.916;8.378;2023-05-03T12:37:59;8.48;;;2.75;;
35380;SDS011;21486;51.916;8.378;2023-05-03T12:40:28;7.93;;;2.53;;
35380;SDS011;21486;51.916;8.378;2023-05-03T12:42:53;9.90;;;2.80;;
35380;SDS011;21486;51.916;8.378;2023-05-03T12:45:22;7.18;;;2.70;;
35380;SDS011;21486;51.916;8.378;2023-05-03T12:47:47;9.45;;;2.40;;
35380;SDS011;21486;51.916;8.378;2023-05-03T12:50:13;6.93;;;2.73;;
35380;SDS011;21486;51.916;8.378;2023-05-03T12:52:38;7.00;;;2.60;;
35380;SDS011;21486;51.916;8.378;2023-05-03T12:55:04;7.28;;;2.80;;
35380;SDS011;21486;51.916;8.378;2023-05-03T12:57:31;12.82;;;2.95;;
35380;SDS011;21486;51.916;8.378;2023-05-03T12:59:57;8.20;;;2.90;;
35380;SDS011;21486;51.916;8.378;2023-05-03T13:02:23;6.60;;;3.20;;
35380;SDS011;21486;51.916;8.378;2023-05-03T13:04:49;8.10;;;2.87;;
35380;SDS011;21486;51.916;8.378;2023-05-03T13:07:19;12.85;;;3.33;;
35380;SDS011;21486;51.916;8.378;2023-05-03T13:09:51;7.50;;;2.95;;
35380;SDS011;21486;51.916;8.378;2023-05-03T13:12:17;8.83;;;2.93;;
35380;SDS011;21486;51.916;8.378;2023-05-03T13:14:45;8.93;;;3.30;;
35380;SDS011;21486;51.916;8.378;2023-05-03T13:17:12;16.58;;;3.28;;
35380;SDS011;21486;51.916;8.378;2023-05-03T13:19:39;8.18;;;3.10;;
35380;SDS011;21486;51.916;8.378;2023-05-03T13:22:05;7.70;;;3.15;;
35380;SDS011;21486;51.916;8.378;2023-05-03T13:24:31;8.63;;;3.60;;
35380;SDS011;21486;51.916;8.378;2023-05-03T13:26:57;7.17;;;3.07;;
35380;SDS011;21486;51.916;8.378;2023-05-03T13:29:22;10.17;;;3.13;;
35380;SDS011;21486;51.916;8.378;2023-05-03T13:31:48;30.25;;;4.03;;
35380;SDS011;21486;51.916;8.378;2023-05-03T13:34:13;7.65;;;3.47;;
35380;SDS011;21486;51.916;8.378;2023-05-03T13:36:39;9.05;;;2.95;;
35380;SDS011;21486;51.916;8.378;2023-05-03T13:39:05;15.87;;;3.40;;
35380;SDS011;21486;51.916;8.378;2023-05-03T13:41:33;7.22;;;3.20;;
35380;SDS011;21486;51.916;8.378;2023-05-03T13:44:00;11.00;;;3.13;;
35380;SDS011;21486;51.916;8.378;2023-05-03T13:46:26;8.30;;;3.30;;
35380;SDS011;21486;51.916;8.378;2023-05-03T13:48:51;21.43;;;3.67;;
35380;SDS011;21486;51.916;8.378;2023-05-03T13:51:19;24.73;;;3.70;;
35380;SDS011;21486;51.916;8.378;2023-05-03T13:53:45;7.17;;;3.33;;
35380;SDS011;21486;51.916;8.378;2023-05-03T13:56:11;10.40;;;3.17;;
35380;SDS011;21486;51.916;8.378;2023-05-03T13:58:36;10.95;;;3.42;;
35380;SDS011;21486;51.916;8.378;2023-05-03T14:01:03;12.55;;;3.47;;
35380;SDS011;21486;51.916;8.378;2023-05-03T14:03:30;6.30;;;3.60;;
35380;SDS011;21486;51.916;8.378;2023-05-03T14:05:56;13.38;;;3.95;;
35380;SDS011;21486;51.916;8.378;2023-05-03T14:08:22;9.25;;;4.18;;
35380;SDS011;21486;51.916;8.378;2023-05-03T14:10:49;9.23;;;3.60;;
35380;SDS011;21486;51.916;8.378;2023-05-03T14:13:14;11.73;;;3.60;;
35380;SDS011;21486;51.916;8.378;2023-05-03T14:15:41;13.57;;;3.80;;
35380;SDS011;21486;51.916;8.378;2023-05-03T14:18:08;12.50;;;3.80;;
35380;SDS011;21486;51.916;8.378;2023-05-03T14:20:34;9.63;;;3.72;;
35380;SDS011;21486;51.916;8.378;2023-05-03T14:23:00;9.98;;;4.05;;
35380;SDS011;21486;51.916;8.378;2023-05-03T14:25:26;7.87;;;3.47;;
35380;SDS011;21486;51.916;8.378;2023-05-03T14:27:52;10.23;;;4.22;;
35380;SDS011;21486;51.916;8.378;2023-05-03T14:30:18;9.65;;;3.45;;
35380;SDS011;21486;51.916;8.378;2023-05-03T14:32:43;8.93;;;3.42;;
35380;SDS011;21486;51.916;8.378;2023-05-03T14:35:09;10.30;;;3.60;;
35380;SDS011;21486;51.916;8.378;2023-05-03T14:37:35;12.57;;;3.90;;
35380;SDS011;21486;51.916;8.378;2023-05-03T14:40:01;8.55;;;3.72;;
35380;SDS011;21486;51.916;8.378;2023-05-03T14:42:30;8.80;;;3.80;;
35380;SDS011;21486;51.916;8.378;2023-05-03T14:44:56;11.35;;;3.70;;
35380;SDS011;21486;51.916;8.378;2023-05-03T14:47:21;9.20;;;3.50;;
35380;SDS011;21486;51.916;8.378;2023-05-03T14:49:47;10.73;;;3.60;;
35380;SDS011;21486;51.916;8.378;2023-05-03T14:52:13;8.90;;;3.85;;
35380;SDS011;21486;51.916;8.378;2023-05-03T14:54:38;6.20;;;3.57;;
35380;SDS011;21486;51.916;8.378;2023-05-03T14:57:04;8.67;;;3.33;;
35380;SDS011;21486;51.916;8.378;2023-05-03T14:59:30;9.80;;;3.63;;
35380;SDS011;21486;51.916;8.378;2023-05-03T15:01:57;7.57;;;3.28;;
35380;SDS011;21486;51.916;8.378;2023-05-03T15:04:23;9.40;;;3.50;;
35380;SDS011;21486;51.916;8.378;2023-05-03T15:06:49;9.75;;;3.80;;
35380;SDS011;21486;51.916;8.378;2023-05-03T15:09:15;10.48;;;3.72;;
35380;SDS011;21486;51.916;8.378;2023-05-03T15:11:41;7.97;;;3.60;;
35380;SDS011;21486;51.916;8.378;2023-05-03T15:14:07;10.60;;;3.43;;
35380;SDS011;21486;51.916;8.378;2023-05-03T15:16:34;5.50;;;3.30;;
35380;SDS011;21486;51.916;8.378;2023-05-03T15:18:59;10.77;;;4.00;;
35380;SDS011;21486;51.916;8.378;2023-05-03T15:21:25;10.27;;;3.75;;
35380;SDS011;21486;51.916;8.378;2023-05-03T15:23:52;7.60;;;3.50;;
35380;SDS011;21486;51.916;8.378;2023-05-03T15:26:18;7.95;;;3.67;;
35380;SDS011;21486;51.916;8.378;2023-05-03T15:28:46;7.70;;;3.33;;
35380;SDS011;21486;51.916;8.378;2023-05-03T15:31:12;9.57;;;3.78;;
35380;SDS011;21486;51.916;8.378;2023-05-03T15:33:39;11.90;;;4.23;;
35380;SDS011;21486;51.916;8.378;2023-05-03T15:36:12;9.50;;;3.97;;
35380;SDS011;21486;51.916;8.378;2023-05-03T15:38:38;13.60;;;4.00;;
35380;SDS011;21486;51.916;8.378;2023-05-03T15:41:05;11.93;;;3.67;;
35380;SDS011;21486;51.916;8.378;2023-05-03T15:43:31;7.47;;;3.13;;
35380;SDS011;21486;51.916;8.378;2023-05-03T15:45:57;12.35;;;3.58;;
35380;SDS011;21486;51.916;8.378;2023-05-03T15:48:23;7.30;;;3.13;;